sensor_id;sensor_type;location;lat;lon;timestamp;pressure;altitude;pressure_sealevel;temperature;humidity
36664;BME280;53333;51.976;20.144;2023-08-24T00:01:50;100379.34;;;20.39;54.83
36664;BME280;53333;51.976;20.144;2023-08-24T00:04:23;100381.81;;;20.42;54.97
36664;BME280;53333;51.976;20.144;2023-08-24T00:06:56;100382.56;;;20.44;54.71
36664;BME280;53333;51.976;20.144;2023-08-24T00:09:29;100375.00;;;20.47;54.88
36664;BME280;53333;51.976;20.144;2023-08-24T00:12:02;100380.16;;;20.50;54.46
36664;BME280;53333;51.976;20.144;2023-08-24T00:14:35;100378.16;;;20.53;54.72
36664;BME280;53333;51.976;20.144;2023-08-24T00:17:09;100381.59;;;20.55;54.57
36664;BME280;53333;51.976;20.144;2023-08-24T00:19:44;100386.75;;;20.58;54.39
36664;BME280;53333;51.976;20.144;2023-08-24T00:22:18;100378.13;;;20.64;53.84
36664;BME280;53333;51.976;20.144;2023-08-24T00:24:51;100377.72;;;20.68;54.05
36664;BME280;53333;51.976;20.144;2023-08-24T00:27:24;100381.16;;;20.71;54.08
36664;BME280;53333;51.976;20.144;2023-08-24T00:29:58;100384.47;;;20.74;53.57
36664;BME280;53333;51.976;20.144;2023-08-24T00:32:32;100375.31;;;20.75;53.58
36664;BME280;53333;51.976;20.144;2023-08-24T00:35:08;100379.75;;;20.76;53.55
36664;BME280;53333;51.976;20.144;2023-08-24T00:37:50;100373.19;;;20.79;53.78
36664;BME280;53333;51.976;20.144;2023-08-24T00:40:23;100370.47;;;20.79;53.64
36664;BME280;53333;51.976;20.144;2023-08-24T00:42:56;100369.25;;;20.93;53.20
36664;BME280;53333;51.976;20.144;2023-08-24T00:45:32;100378.34;;;20.82;53.48
36664;BME280;53333;51.976;20.144;2023-08-24T00:48:07;100370.34;;;20.80;53.45
36664;BME280;53333;51.976;20.144;2023-08-24T00:50:40;100381.94;;;20.82;53.64
36664;BME280;53333;51.976;20.144;2023-08-24T00:53:14;100373.78;;;20.82;53.57
36664;BME280;53333;51.976;20.144;2023-08-24T00:55:48;100375.34;;;20.85;53.42
36664;BME280;53333;51.976;20.144;2023-08-24T00:58:21;100379.94;;;20.84;53.90
36664;BME280;53333;51.976;20.144;2023-08-24T01:00:56;100372.91;;;20.82;53.61
36664;BME280;53333;51.976;20.144;2023-08-24T01:03:50;100374.78;;;20.81;53.52
36664;BME280;53333;51.976;20.144;2023-08-24T01:06:23;100364.91;;;20.80;53.51
36664;BME280;53333;51.976;20.144;2023-08-24T01:08:57;100371.34;;;20.79;53.62
36664;BME280;53333;51.976;20.144;2023-08-24T01:11:38;100375.19;;;20.77;53.93
36664;BME280;53333;51.976;20.144;2023-08-24T01:14:22;100362.00;;;20.72;54.02
36664;BME280;53333;51.976;20.144;2023-08-24T01:16:58;100369.56;;;20.68;53.73
36664;BME280;53333;51.976;20.144;2023-08-24T01:19:38;100366.28;;;20.65;54.44
36664;BME280;53333;51.976;20.144;2023-08-24T01:22:32;100376.34;;;20.63;54.22
36664;BME280;53333;51.976;20.144;2023-08-24T01:25:11;100364.59;;;20.53;54.64
36664;BME280;53333;51.976;20.144;2023-08-24T01:27:47;100367.59;;;20.49;54.71
36664;BME280;53333;51.976;20.144;2023-08-24T01:30:22;100366.00;;;20.47;54.79
36664;BME280;53333;51.976;20.144;2023-08-24T01:32:55;100369.00;;;20.44;55.08
36664;BME280;53333;51.976;20.144;2023-08-24T01:35:28;100359.03;;;20.54;54.54
36664;BME280;53333;51.976;20.144;2023-08-24T01:38:01;100359.13;;;20.43;54.65
36664;BME280;53333;51.976;20.144;2023-08-24T01:40:45;100352.38;;;20.37;55.11
36664;BME280;53333;51.976;20.144;2023-08-24T01:43:31;100360.63;;;20.36;55.38
36664;BME280;53333;51.976;20.144;2023-08-24T01:46:16;100355.59;;;20.31;55.34
36664;BME280;53333;51.976;20.144;2023-08-24T01:48:52;100354.31;;;20.25;55.19
36664;BME280;53333;51.976;20.144;2023-08-24T01:51:26;100361.09;;;20.20;55.89
36664;BME280;53333;51.976;20.144;2023-08-24T01:53:59;100356.88;;;20.27;55.16
36664;BME280;53333;51.976;20.144;2023-08-24T01:56:32;100353.66;;;20.12;55.70
36664;BME280;53333;51.976;20.144;2023-08-24T01:59:07;100350.59;;;20.05;55.66
36664;BME280;53333;51.976;20.144;2023-08-24T02:01:41;100358.13;;;20.02;56.16
36664;BME280;53333;51.976;20.144;2023-08-24T02:04:14;100354.81;;;19.98;56.19
36664;BME280;53333;51.976;20.144;2023-08-24T02:06:47;100353.34;;;19.94;56.35
36664;BME280;53333;51.976;20.144;2023-08-24T02:09:20;100357.06;;;19.93;56.16
36664;BME280;53333;51.976;20.144;2023-08-24T02:11:56;100354.63;;;19.90;56.36
36664;BME280;53333;51.976;20.144;2023-08-24T02:14:30;100353.75;;;19.89;56.47
36664;BME280;53333;51.976;20.144;2023-08-24T02:17:03;100358.44;;;19.87;56.20
36664;BME280;53333;51.976;20.144;2023-08-24T02:19:36;100350.31;;;19.87;56.39
36664;BME280;53333;51.976;20.144;2023-08-24T02:22:09;100350.56;;;19.84;56.44
36664;BME280;53333;51.976;20.144;2023-08-24T02:24:45;100346.28;;;19.82;56.63
36664;BME280;53333;51.976;20.144;2023-08-24T02:27:18;100348.13;;;19.81;56.25
36664;BME280;53333;51.976;20.144;2023-08-24T02:29:52;100347.53;;;19.77;56.45
36664;BME280;53333;51.976;20.144;2023-08-24T02:32:25;100343.31;;;19.73;56.16
36664;BME280;53333;51.976;20.144;2023-08-24T02:34:58;100355.03;;;19.74;56.30
36664;BME280;53333;51.976;20.144;2023-08-24T02:37:34;100348.13;;;19.70;56.43
36664;BME280;53333;51.976;20.144;2023-08-24T02:40:08;100346.41;;;19.69;56.41
36664;BME280;53333;51.976;20.144;2023-08-24T02:42:41;100346.81;;;19.64;56.16
36664;BME280;53333;51.976;20.144;2023-08-24T02:45:16;100346.19;;;19.60;56.30
36664;BME280;53333;51.976;20.144;2023-08-24T02:47:49;100348.31;;;19.57;56.50
36664;BME280;53333;51.976;20.144;2023-08-24T02:50:22;100352.13;;;19.54;56.67
36664;BME280;53333;51.976;20.144;2023-08-24T02:52:55;100346.69;;;19.54;56.42
36664;BME280;53333;51.976;20.144;2023-08-24T02:55:31;100348.81;;;19.51;56.68
36664;BME280;53333;51.976;20.144;2023-08-24T02:58:05;100347.97;;;19.50;56.73
36664;BME280;53333;51.976;20.144;2023-08-24T03:00:39;100342.81;;;19.47;56.36
36664;BME280;53333;51.976;20.144;2023-08-24T03:03:13;100352.91;;;19.45;56.69
36664;BME280;53333;51.976;20.144;2023-08-24T03:05:55;100343.06;;;19.44;56.60
36664;BME280;53333;51.976;20.144;2023-08-24T03:08:29;100338.03;;;19.39;56.20
36664;BME280;53333;51.976;20.144;2023-08-24T03:11:03;100334.59;;;19.37;56.34
36664;BME280;53333;51.976;20.144;2023-08-24T03:13:37;100341.09;;;19.35;56.55
36664;BME280;53333;51.976;20.144;2023-08-24T03:16:12;100337.56;;;19.34;56.32
36664;BME280;53333;51.976;20.144;2023-08-24T03:18:45;100340.38;;;19.33;56.50
36664;BME280;53333;51.976;20.144;2023-08-24T03:21:18;100336.94;;;19.31;56.27
36664;BME280;53333;51.976;20.144;2023-08-24T03:23:51;100341.47;;;19.30;56.25
36664;BME280;53333;51.976;20.144;2023-08-24T03:26:24;100339.91;;;19.28;56.56
36664;BME280;53333;51.976;20.144;2023-08-24T03:28:58;100332.75;;;19.27;56.49
36664;BME280;53333;51.976;20.144;2023-08-24T03:31:32;100330.19;;;19.25;56.58
36664;BME280;53333;51.976;20.144;2023-08-24T03:34:05;100332.03;;;19.24;56.23
36664;BME280;53333;51.976;20.144;2023-08-24T03:36:39;100336.69;;;19.22;56.56
36664;BME280;53333;51.976;20.144;2023-08-24T03:39:12;100334.00;;;19.22;56.63
36664;BME280;53333;51.976;20.144;2023-08-24T03:41:45;100333.09;;;19.33;56.18
36664;BME280;53333;51.976;20.144;2023-08-24T03:44:18;100332.16;;;19.23;56.04
36664;BME280;53333;51.976;20.144;2023-08-24T03:46:52;100333.25;;;19.20;56.09
36664;BME280;53333;51.976;20.144;2023-08-24T03:49:25;100337.09;;;19.18;56.30
36664;BME280;53333;51.976;20.144;2023-08-24T03:51:58;100334.53;;;19.16;56.26
36664;BME280;53333;51.976;20.144;2023-08-24T03:54:31;100338.94;;;19.17;56.60
36664;BME280;53333;51.976;20.144;2023-08-24T03:57:04;100348.78;;;19.18;56.69
36664;BME280;53333;51.976;20.144;2023-08-24T03:59:40;100346.06;;;19.18;56.66
36664;BME280;53333;51.976;20.144;2023-08-24T04:02:14;100350.50;;;19.19;56.60
36664;BME280;53333;51.976;20.144;2023-08-24T04:04:47;100351.38;;;19.20;56.79
36664;BME280;53333;51.976;20.144;2023-08-24T04:07:20;100343.13;;;19.21;56.92
36664;BME280;53333;51.976;20.144;2023-08-24T04:09:53;100344.81;;;19.22;56.59
36664;BME280;53333;51.976;20.144;2023-08-24T04:12:28;100341.84;;;19.26;56.78
36664;BME280;53333;51.976;20.144;2023-08-24T04:15:02;100342.63;;;19.28;56.48
36664;BME280;53333;51.976;20.144;2023-08-24T04:17:37;100335.09;;;19.31;56.65
36664;BME280;53333;51.976;20.144;2023-08-24T04:20:13;100348.97;;;19.38;56.50
36664;BME280;53333;51.976;20.144;2023-08-24T04:22:46;100348.59;;;19.42;56.04
36664;BME280;53333;51.976;20.144;2023-08-24T04:25:19;100355.50;;;19.47;55.90
36664;BME280;53333;51.976;20.144;2023-08-24T04:27:52;100348.81;;;19.51;55.84
36664;BME280;53333;51.976;20.144;2023-08-24T04:30:25;100353.97;;;19.54;55.95
36664;BME280;53333;51.976;20.144;2023-08-24T04:32:59;100355.59;;;19.56;55.95
36664;BME280;53333;51.976;20.144;2023-08-24T04:35:34;100351.75;;;19.59;55.74
36664;BME280;53333;51.976;20.144;2023-08-24T04:38:07;100359.34;;;19.65;55.77
36664;BME280;53333;51.976;20.144;2023-08-24T04:40:49;100352.56;;;19.71;55.36
36664;BME280;53333;51.976;20.144;2023-08-24T04:43:24;100345.91;;;19.75;55.26
36664;BME280;53333;51.976;20.144;2023-08-24T04:45:57;100349.72;;;19.84;55.45
36664;BME280;53333;51.976;20.144;2023-08-24T04:48:32;100350.06;;;19.90;55.20
36664;BME280;53333;51.976;20.144;2023-08-24T04:51:06;100346.81;;;19.96;54.98
36664;BME280;53333;51.976;20.144;2023-08-24T04:53:38;100351.72;;;20.03;55.17
36664;BME280;53333;51.976;20.144;2023-08-24T04:56:11;100352.78;;;20.11;54.79
36664;BME280;53333;51.976;20.144;2023-08-24T04:58:52;100350.25;;;20.20;54.73
36664;BME280;53333;51.976;20.144;2023-08-24T05:01:25;100357.72;;;20.27;54.47
36664;BME280;53333;51.976;20.144;2023-08-24T05:04:00;100354.88;;;20.50;54.39
36664;BME280;53333;51.976;20.144;2023-08-24T05:06:33;100350.47;;;20.49;54.50
36664;BME280;53333;51.976;20.144;2023-08-24T05:09:08;100347.94;;;20.57;54.35
36664;BME280;53333;51.976;20.144;2023-08-24T05:11:43;100345.44;;;20.65;54.16
36664;BME280;53333;51.976;20.144;2023-08-24T05:14:16;100350.75;;;20.77;53.82
36664;BME280;53333;51.976;20.144;2023-08-24T05:16:52;100352.53;;;20.88;53.38
36664;BME280;53333;51.976;20.144;2023-08-24T05:19:26;100357.00;;;20.98;53.30
36664;BME280;53333;51.976;20.144;2023-08-24T05:22:00;100360.47;;;21.10;53.07
36664;BME280;53333;51.976;20.144;2023-08-24T05:24:34;100359.63;;;21.19;53.16
36664;BME280;53333;51.976;20.144;2023-08-24T05:27:07;100354.94;;;21.31;52.70
36664;BME280;53333;51.976;20.144;2023-08-24T05:29:40;100359.97;;;21.46;52.35
36664;BME280;53333;51.976;20.144;2023-08-24T05:32:13;100358.03;;;21.57;52.47
36664;BME280;53333;51.976;20.144;2023-08-24T05:34:47;100355.88;;;21.71;52.28
36664;BME280;53333;51.976;20.144;2023-08-24T05:37:20;100361.19;;;21.82;52.03
36664;BME280;53333;51.976;20.144;2023-08-24T05:39:53;100362.63;;;21.96;52.01
36664;BME280;53333;51.976;20.144;2023-08-24T05:42:26;100358.59;;;22.10;51.26
36664;BME280;53333;51.976;20.144;2023-08-24T05:44:59;100359.03;;;22.35;51.38
36664;BME280;53333;51.976;20.144;2023-08-24T05:47:32;100365.16;;;22.37;51.39
36664;BME280;53333;51.976;20.144;2023-08-24T05:50:07;100362.13;;;22.49;51.05
36664;BME280;53333;51.976;20.144;2023-08-24T05:52:40;100369.97;;;22.62;50.29
36664;BME280;53333;51.976;20.144;2023-08-24T05:55:13;100367.66;;;22.77;50.43
36664;BME280;53333;51.976;20.144;2023-08-24T05:57:47;100368.16;;;22.91;50.07
36664;BME280;53333;51.976;20.144;2023-08-24T06:00:21;100367.94;;;23.02;49.69
36664;BME280;53333;51.976;20.144;2023-08-24T06:02:54;100366.63;;;23.16;49.63
36664;BME280;53333;51.976;20.144;2023-08-24T06:05:29;100367.13;;;23.29;49.62
36664;BME280;53333;51.976;20.144;2023-08-24T06:08:03;100360.47;;;23.42;48.48
36664;BME280;53333;51.976;20.144;2023-08-24T06:10:36;100364.69;;;23.54;48.91
36664;BME280;53333;51.976;20.144;2023-08-24T06:13:09;100365.47;;;23.64;48.64
36664;BME280;53333;51.976;20.144;2023-08-24T06:15:42;100358.94;;;23.75;48.61
36664;BME280;53333;51.976;20.144;2023-08-24T06:18:15;100357.00;;;23.85;48.14
36664;BME280;53333;51.976;20.144;2023-08-24T06:20:49;100361.53;;;23.94;48.13
36664;BME280;53333;51.976;20.144;2023-08-24T06:23:23;100361.13;;;24.07;47.92
36664;BME280;53333;51.976;20.144;2023-08-24T06:25:58;100358.88;;;24.21;46.93
36664;BME280;53333;51.976;20.144;2023-08-24T06:28:32;100357.41;;;24.35;47.11
36664;BME280;53333;51.976;20.144;2023-08-24T06:31:05;100351.38;;;24.49;47.01
36664;BME280;53333;51.976;20.144;2023-08-24T06:33:39;100350.28;;;24.60;46.08
36664;BME280;53333;51.976;20.144;2023-08-24T06:36:14;100343.84;;;24.69;46.49
36664;BME280;53333;51.976;20.144;2023-08-24T06:38:47;100356.22;;;24.81;45.86
36664;BME280;53333;51.976;20.144;2023-08-24T06:41:20;100352.34;;;24.92;45.12
36664;BME280;53333;51.976;20.144;2023-08-24T06:43:53;100350.50;;;25.01;44.62
36664;BME280;53333;51.976;20.144;2023-08-24T06:46:27;100354.28;;;25.08;44.92
36664;BME280;53333;51.976;20.144;2023-08-24T06:49:00;100346.53;;;25.30;44.76
36664;BME280;53333;51.976;20.144;2023-08-24T06:51:34;100348.25;;;25.31;44.79
36664;BME280;53333;51.976;20.144;2023-08-24T06:54:07;100360.41;;;25.45;44.67
36664;BME280;53333;51.976;20.144;2023-08-24T06:56:40;100359.06;;;25.57;44.04
36664;BME280;53333;51.976;20.144;2023-08-24T06:59:14;100362.53;;;25.67;43.74
36664;BME280;53333;51.976;20.144;2023-08-24T07:01:46;100367.16;;;25.91;44.14
36664;BME280;53333;51.976;20.144;2023-08-24T07:04:20;100368.19;;;25.90;43.39
36664;BME280;53333;51.976;20.144;2023-08-24T07:06:54;100365.66;;;26.14;43.84
36664;BME280;53333;51.976;20.144;2023-08-24T07:09:27;100372.66;;;26.16;42.60
36664;BME280;53333;51.976;20.144;2023-08-24T07:12:00;100373.19;;;26.28;42.40
36664;BME280;53333;51.976;20.144;2023-08-24T07:14:33;100379.81;;;26.42;42.18
36664;BME280;53333;51.976;20.144;2023-08-24T07:17:05;100376.91;;;26.68;42.62
36664;BME280;53333;51.976;20.144;2023-08-24T07:19:38;100374.50;;;26.73;41.67
36664;BME280;53333;51.976;20.144;2023-08-24T07:22:13;100370.38;;;26.86;41.97
36664;BME280;53333;51.976;20.144;2023-08-24T07:24:46;100372.38;;;27.00;41.86
36664;BME280;53333;51.976;20.144;2023-08-24T07:27:23;100368.53;;;27.17;41.04
36664;BME280;53333;51.976;20.144;2023-08-24T07:29:56;100363.25;;;27.47;41.24
36664;BME280;53333;51.976;20.144;2023-08-24T07:32:29;100364.75;;;27.58;40.15
36664;BME280;53333;51.976;20.144;2023-08-24T07:35:04;100367.50;;;27.81;40.41
36664;BME280;53333;51.976;20.144;2023-08-24T07:37:39;100358.44;;;28.04;40.08
36664;BME280;53333;51.976;20.144;2023-08-24T07:40:12;100362.88;;;28.28;39.43
36664;BME280;53333;51.976;20.144;2023-08-24T07:42:46;100367.63;;;28.49;39.29
36664;BME280;53333;51.976;20.144;2023-08-24T07:45:20;100364.50;;;28.75;38.23
36664;BME280;53333;51.976;20.144;2023-08-24T07:47:54;100364.09;;;28.93;37.60
36664;BME280;53333;51.976;20.144;2023-08-24T07:50:27;100367.59;;;29.17;37.08
36664;BME280;53333;51.976;20.144;2023-08-24T07:53:01;100366.97;;;29.51;37.47
36664;BME280;53333;51.976;20.144;2023-08-24T07:55:35;100362.88;;;29.62;36.02
36664;BME280;53333;51.976;20.144;2023-08-24T07:58:08;100351.63;;;29.79;36.31
36664;BME280;53333;51.976;20.144;2023-08-24T08:00:40;100353.22;;;30.10;36.62
36664;BME280;53333;51.976;20.144;2023-08-24T08:03:13;100364.53;;;30.21;36.08
36664;BME280;53333;51.976;20.144;2023-08-24T08:05:48;100362.81;;;30.42;35.34
36664;BME280;53333;51.976;20.144;2023-08-24T08:08:23;100357.50;;;30.69;35.35
36664;BME280;53333;51.976;20.144;2023-08-24T08:11:00;100361.97;;;31.05;34.28
36664;BME280;53333;51.976;20.144;2023-08-24T08:13:33;100373.31;;;31.23;33.39
36664;BME280;53333;51.976;20.144;2023-08-24T08:16:07;100368.75;;;31.50;33.93
36664;BME280;53333;51.976;20.144;2023-08-24T08:18:40;100368.84;;;31.77;32.30
36664;BME280;53333;51.976;20.144;2023-08-24T08:21:15;100368.88;;;31.97;31.88
36664;BME280;53333;51.976;20.144;2023-08-24T08:23:56;100364.41;;;31.90;31.42
36664;BME280;53333;51.976;20.144;2023-08-24T08:26:29;100374.56;;;31.76;31.52
36664;BME280;53333;51.976;20.144;2023-08-24T08:29:02;100370.84;;;32.30;31.34
36664;BME280;53333;51.976;20.144;2023-08-24T08:31:37;100363.44;;;33.29;29.29
36664;BME280;53333;51.976;20.144;2023-08-24T08:34:10;100368.84;;;33.95;28.19
36664;BME280;53333;51.976;20.144;2023-08-24T08:36:43;100369.38;;;34.61;27.74
36664;BME280;53333;51.976;20.144;2023-08-24T08:39:17;100373.72;;;34.75;26.79
36664;BME280;53333;51.976;20.144;2023-08-24T08:41:51;100373.69;;;35.19;26.69
36664;BME280;53333;51.976;20.144;2023-08-24T08:44:26;100371.38;;;35.64;26.83
36664;BME280;53333;51.976;20.144;2023-08-24T08:47:01;100357.06;;;36.10;26.52
36664;BME280;53333;51.976;20.144;2023-08-24T08:49:35;100354.94;;;35.63;25.72
36664;BME280;53333;51.976;20.144;2023-08-24T08:52:09;100362.22;;;35.64;26.25
36664;BME280;53333;51.976;20.144;2023-08-24T08:54:44;100355.09;;;35.98;25.83
36664;BME280;53333;51.976;20.144;2023-08-24T08:57:17;100354.09;;;36.47;24.85
36664;BME280;53333;51.976;20.144;2023-08-24T08:59:52;100357.50;;;36.84;23.79
36664;BME280;53333;51.976;20.144;2023-08-24T09:02:25;100351.97;;;37.25;23.70
36664;BME280;53333;51.976;20.144;2023-08-24T09:04:58;100359.00;;;37.56;23.65
36664;BME280;53333;51.976;20.144;2023-08-24T09:07:32;100359.25;;;37.84;23.30
36664;BME280;53333;51.976;20.144;2023-08-24T09:10:08;100353.06;;;37.82;22.83
36664;BME280;53333;51.976;20.144;2023-08-24T09:12:41;100343.97;;;37.69;22.85
36664;BME280;53333;51.976;20.144;2023-08-24T09:15:23;100352.81;;;37.54;22.75
36664;BME280;53333;51.976;20.144;2023-08-24T09:17:56;100344.47;;;37.83;23.04
36664;BME280;53333;51.976;20.144;2023-08-24T09:20:31;100340.31;;;38.31;21.97
36664;BME280;53333;51.976;20.144;2023-08-24T09:23:04;100340.75;;;38.23;22.05
36664;BME280;53333;51.976;20.144;2023-08-24T09:25:44;100342.53;;;37.84;22.95
36664;BME280;53333;51.976;20.144;2023-08-24T09:28:23;100350.13;;;38.17;21.96
36664;BME280;53333;51.976;20.144;2023-08-24T09:31:00;100343.53;;;38.23;22.00
36664;BME280;53333;51.976;20.144;2023-08-24T09:33:33;100345.94;;;38.20;22.11
36664;BME280;53333;51.976;20.144;2023-08-24T09:36:08;100356.47;;;37.55;21.89
36664;BME280;53333;51.976;20.144;2023-08-24T09:38:46;100348.53;;;36.94;23.13
36664;BME280;53333;51.976;20.144;2023-08-24T09:41:20;100334.69;;;37.11;22.71
36664;BME280;53333;51.976;20.144;2023-08-24T09:43:53;100334.38;;;36.48;23.81
36664;BME280;53333;51.976;20.144;2023-08-24T09:46:26;100346.81;;;35.50;24.21
36664;BME280;53333;51.976;20.144;2023-08-24T09:49:00;100342.28;;;34.63;25.28
36664;BME280;53333;51.976;20.144;2023-08-24T09:51:34;100344.13;;;34.25;26.23
36664;BME280;53333;51.976;20.144;2023-08-24T09:54:08;100333.06;;;34.18;26.28
36664;BME280;53333;51.976;20.144;2023-08-24T09:56:42;100330.06;;;33.95;26.46
36664;BME280;53333;51.976;20.144;2023-08-24T09:59:17;100338.94;;;33.78;27.00
36664;BME280;53333;51.976;20.144;2023-08-24T10:01:51;100338.72;;;33.35;27.81
36664;BME280;53333;51.976;20.144;2023-08-24T10:04:29;100327.16;;;32.92;28.69
36664;BME280;53333;51.976;20.144;2023-08-24T10:07:07;100334.47;;;32.67;28.57
36664;BME280;53333;51.976;20.144;2023-08-24T10:09:46;100328.72;;;32.55;29.93
36664;BME280;53333;51.976;20.144;2023-08-24T10:12:24;100323.44;;;32.13;29.34
36664;BME280;53333;51.976;20.144;2023-08-24T10:15:00;100324.69;;;31.77;29.97
36664;BME280;53333;51.976;20.144;2023-08-24T10:17:35;100319.59;;;32.01;29.65
36664;BME280;53333;51.976;20.144;2023-08-24T10:20:10;100321.72;;;32.32;29.89
36664;BME280;53333;51.976;20.144;2023-08-24T10:22:45;100316.84;;;32.41;30.85
36664;BME280;53333;51.976;20.144;2023-08-24T10:25:20;100308.13;;;32.51;30.45
36664;BME280;53333;51.976;20.144;2023-08-24T10:27:57;100324.47;;;32.39;30.64
36664;BME280;53333;51.976;20.144;2023-08-24T10:30:33;100319.41;;;32.29;31.15
36664;BME280;53333;51.976;20.144;2023-08-24T10:33:06;100322.34;;;31.94;32.48
36664;BME280;53333;51.976;20.144;2023-08-24T10:35:40;100319.53;;;31.54;32.33
36664;BME280;53333;51.976;20.144;2023-08-24T10:38:23;100319.59;;;31.12;33.65
36664;BME280;53333;51.976;20.144;2023-08-24T10:41:02;100310.91;;;32.24;32.78
36664;BME280;53333;51.976;20.144;2023-08-24T10:43:37;100324.03;;;32.75;31.54
36664;BME280;53333;51.976;20.144;2023-08-24T10:46:14;100333.75;;;32.98;30.58
36664;BME280;53333;51.976;20.144;2023-08-24T10:48:58;100333.34;;;32.88;31.11
36664;BME280;53333;51.976;20.144;2023-08-24T10:51:42;100323.03;;;33.15;31.08
36664;BME280;53333;51.976;20.144;2023-08-24T10:54:16;100321.22;;;33.41;30.76
36664;BME280;53333;51.976;20.144;2023-08-24T10:56:53;100320.25;;;33.28;30.86
36664;BME280;53333;51.976;20.144;2023-08-24T10:59:34;100312.25;;;33.45;31.33
36664;BME280;53333;51.976;20.144;2023-08-24T11:02:21;100316.69;;;34.42;28.96
36664;BME280;53333;51.976;20.144;2023-08-24T11:05:04;100306.53;;;35.77;27.36
36664;BME280;53333;51.976;20.144;2023-08-24T11:07:48;100316.13;;;36.76;25.63
36664;BME280;53333;51.976;20.144;2023-08-24T11:10:22;100317.44;;;36.85;25.83
36664;BME280;53333;51.976;20.144;2023-08-24T11:13:10;100310.59;;;36.29;26.79
36664;BME280;53333;51.976;20.144;2023-08-24T11:15:46;100309.09;;;35.30;27.22
36664;BME280;53333;51.976;20.144;2023-08-24T11:18:23;100306.84;;;34.21;29.25
36664;BME280;53333;51.976;20.144;2023-08-24T11:21:00;100309.53;;;32.87;31.27
36664;BME280;53333;51.976;20.144;2023-08-24T11:23:34;100293.81;;;32.87;30.75
36664;BME280;53333;51.976;20.144;2023-08-24T11:26:07;100296.00;;;32.58;31.16
36664;BME280;53333;51.976;20.144;2023-08-24T11:28:40;100296.50;;;33.46;30.66
36664;BME280;53333;51.976;20.144;2023-08-24T11:31:15;100293.47;;;33.22;30.81
36664;BME280;53333;51.976;20.144;2023-08-24T11:33:53;100297.28;;;32.49;31.84
36664;BME280;53333;51.976;20.144;2023-08-24T11:36:27;100302.59;;;31.91;33.02
36664;BME280;53333;51.976;20.144;2023-08-24T11:39:00;100302.16;;;32.07;33.50
36664;BME280;53333;51.976;20.144;2023-08-24T11:41:33;100290.09;;;32.28;34.13
36664;BME280;53333;51.976;20.144;2023-08-24T11:44:06;100290.69;;;32.50;33.88
36664;BME280;53333;51.976;20.144;2023-08-24T11:47:00;100285.81;;;32.46;32.14
36664;BME280;53333;51.976;20.144;2023-08-24T11:49:33;100289.66;;;32.31;32.86
36664;BME280;53333;51.976;20.144;2023-08-24T11:52:06;100277.13;;;32.09;33.01
36664;BME280;53333;51.976;20.144;2023-08-24T11:54:39;100272.84;;;31.93;34.65
36664;BME280;53333;51.976;20.144;2023-08-24T11:57:13;100283.28;;;31.84;34.03
36664;BME280;53333;51.976;20.144;2023-08-24T11:59:46;100276.88;;;31.70;35.00
36664;BME280;53333;51.976;20.144;2023-08-24T12:02:21;100280.25;;;31.52;34.52
36664;BME280;53333;51.976;20.144;2023-08-24T12:04:54;100274.50;;;31.47;34.91
36664;BME280;53333;51.976;20.144;2023-08-24T12:07:28;100269.19;;;31.39;33.93
36664;BME280;53333;51.976;20.144;2023-08-24T12:10:03;100268.72;;;31.22;34.45
36664;BME280;53333;51.976;20.144;2023-08-24T12:12:37;100266.97;;;31.07;35.25
36664;BME280;53333;51.976;20.144;2023-08-24T12:15:15;100269.38;;;30.82;35.17
36664;BME280;53333;51.976;20.144;2023-08-24T12:17:49;100276.06;;;30.66;35.27
36664;BME280;53333;51.976;20.144;2023-08-24T12:20:23;100273.88;;;30.48;35.60
36664;BME280;53333;51.976;20.144;2023-08-24T12:22:56;100285.19;;;30.32;35.96
36664;BME280;53333;51.976;20.144;2023-08-24T12:25:29;100271.28;;;29.90;35.69
36664;BME280;53333;51.976;20.144;2023-08-24T12:28:10;100272.72;;;29.64;36.16
36664;BME280;53333;51.976;20.144;2023-08-24T12:30:45;100268.69;;;29.60;36.15
36664;BME280;53333;51.976;20.144;2023-08-24T12:33:24;100263.22;;;29.67;35.38
36664;BME280;53333;51.976;20.144;2023-08-24T12:36:06;100251.63;;;29.71;36.23
36664;BME280;53333;51.976;20.144;2023-08-24T12:38:39;100264.88;;;29.83;35.67
36664;BME280;53333;51.976;20.144;2023-08-24T12:41:14;100258.84;;;29.94;36.37
36664;BME280;53333;51.976;20.144;2023-08-24T12:43:47;100261.41;;;29.96;35.81
36664;BME280;53333;51.976;20.144;2023-08-24T12:46:20;100263.25;;;29.88;36.10
36664;BME280;53333;51.976;20.144;2023-08-24T12:48:54;100252.88;;;29.69;35.89
36664;BME280;53333;51.976;20.144;2023-08-24T12:51:28;100248.88;;;29.50;37.18
36664;BME280;53333;51.976;20.144;2023-08-24T12:54:01;100243.31;;;29.43;37.88
36664;BME280;53333;51.976;20.144;2023-08-24T12:56:33;100249.09;;;29.48;37.75
36664;BME280;53333;51.976;20.144;2023-08-24T12:59:07;100241.91;;;29.47;36.85
36664;BME280;53333;51.976;20.144;2023-08-24T13:01:40;100237.88;;;29.50;37.25
36664;BME280;53333;51.976;20.144;2023-08-24T13:04:15;100234.94;;;29.51;37.12
36664;BME280;53333;51.976;20.144;2023-08-24T13:06:50;100230.50;;;29.50;37.59
36664;BME280;53333;51.976;20.144;2023-08-24T13:09:23;100226.63;;;29.45;37.18
36664;BME280;53333;51.976;20.144;2023-08-24T13:11:57;100228.50;;;29.23;37.38
36664;BME280;53333;51.976;20.144;2023-08-24T13:14:30;100231.81;;;28.96;37.71
36664;BME280;53333;51.976;20.144;2023-08-24T13:17:03;100222.38;;;28.69;37.88
36664;BME280;53333;51.976;20.144;2023-08-24T13:19:38;100219.06;;;28.59;38.84